sensor_id;sensor_type;location;lat;lon;timestamp;temperature;humidity
3001;DHT22;1510;51.072;6.678;2022-07-18T00:00:23;13.90;60.70
3001;DHT22;1510;51.072;6.678;2022-07-18T00:02:49;13.90;60.70
3001;DHT22;1510;51.072;6.678;2022-07-18T00:05:16;13.90;60.20
3001;DHT22;1510;51.072;6.678;2022-07-18T00:07:43;13.80;59.40
3001;DHT22;1510;51.072;6.678;2022-07-18T00:10:10;13.70;61.60
3001;DHT22;1510;51.072;6.678;2022-07-18T00:12:38;13.60;63.00
3001;DHT22;1510;51.072;6.678;2022-07-18T00:15:06;13.60;63.00
3001;DHT22;1510;51.072;6.678;2022-07-18T00:17:33;13.60;64.30
3001;DHT22;1510;51.072;6.678;2022-07-18T00:19:59;13.50;63.20
3001;DHT22;1510;51.072;6.678;2022-07-18T00:22:26;13.50;64.30
3001;DHT22;1510;51.072;6.678;2022-07-18T00:24:53;13.50;64.20
3001;DHT22;1510;51.072;6.678;2022-07-18T00:27:19;13.50;64.20
3001;DHT22;1510;51.072;6.678;2022-07-18T00:29:47;13.40;64.30
3001;DHT22;1510;51.072;6.678;2022-07-18T00:32:14;13.30;64.00
3001;DHT22;1510;51.072;6.678;2022-07-18T00:34:41;13.30;65.50
3001;DHT22;1510;51.072;6.678;2022-07-18T00:37:08;13.30;65.60
3001;DHT22;1510;51.072;6.678;2022-07-18T00:39:35;13.30;66.80
3001;DHT22;1510;51.072;6.678;2022-07-18T00:42:02;13.20;67.90
3001;DHT22;1510;51.072;6.678;2022-07-18T00:44:29;13.20;70.10
3001;DHT22;1510;51.072;6.678;2022-07-18T00:46:59;13.20;70.70
3001;DHT22;1510;51.072;6.678;2022-07-18T00:49:26;13.10;71.90
3001;DHT22;1510;51.072;6.678;2022-07-18T00:51:53;13.10;71.10
3001;DHT22;1510;51.072;6.678;2022-07-18T00:54:20;13.10;71.90
3001;DHT22;1510;51.072;6.678;2022-07-18T00:56:48;13.00;71.90
3001;DHT22;1510;51.072;6.678;2022-07-18T00:59:16;13.00;73.60
3001;DHT22;1510;51.072;6.678;2022-07-18T01:01:43;13.00;74.90
3001;DHT22;1510;51.072;6.678;2022-07-18T01:04:11;12.90;74.60
3001;DHT22;1510;51.072;6.678;2022-07-18T01:06:39;12.90;75.20
3001;DHT22;1510;51.072;6.678;2022-07-18T01:09:06;12.90;74.90
3001;DHT22;1510;51.072;6.678;2022-07-18T01:11:33;13.00;75.20
3001;DHT22;1510;51.072;6.678;2022-07-18T01:14:01;13.00;75.70
3001;DHT22;1510;51.072;6.678;2022-07-18T01:16:28;12.90;74.70
3001;DHT22;1510;51.072;6.678;2022-07-18T01:18:54;12.90;74.50
3001;DHT22;1510;51.072;6.678;2022-07-18T01:21:23;12.90;72.90
3001;DHT22;1510;51.072;6.678;2022-07-18T01:23:50;13.00;71.80
3001;DHT22;1510;51.072;6.678;2022-07-18T01:26:17;13.10;71.20
3001;DHT22;1510;51.072;6.678;2022-07-18T01:28:46;13.20;68.50
3001;DHT22;1510;51.072;6.678;2022-07-18T01:31:13;13.20;67.80
3001;DHT22;1510;51.072;6.678;2022-07-18T01:33:40;13.20;65.10
3001;DHT22;1510;51.072;6.678;2022-07-18T01:36:07;13.20;63.90
3001;DHT22;1510;51.072;6.678;2022-07-18T01:38:36;13.20;65.40
3001;DHT22;1510;51.072;6.678;2022-07-18T01:41:03;13.20;66.90
3001;DHT22;1510;51.072;6.678;2022-07-18T01:43:30;13.10;66.10
3001;DHT22;1510;51.072;6.678;2022-07-18T01:45:57;13.10;67.40
3001;DHT22;1510;51.072;6.678;2022-07-18T01:48:24;13.00;66.10
3001;DHT22;1510;51.072;6.678;2022-07-18T01:50:52;13.00;65.80
3001;DHT22;1510;51.072;6.678;2022-07-18T01:53:19;12.90;67.70
3001;DHT22;1510;51.072;6.678;2022-07-18T01:55:48;12.80;68.50
3001;DHT22;1510;51.072;6.678;2022-07-18T01:58:14;12.70;69.30
3001;DHT22;1510;51.072;6.678;2022-07-18T02:00:41;12.60;69.50
3001;DHT22;1510;51.072;6.678;2022-07-18T02:03:08;12.60;69.70
3001;DHT22;1510;51.072;6.678;2022-07-18T02:05:35;12.60;71.50
3001;DHT22;1510;51.072;6.678;2022-07-18T02:08:02;12.50;70.80
3001;DHT22;1510;51.072;6.678;2022-07-18T02:10:29;12.50;71.30
3001;DHT22;1510;51.072;6.678;2022-07-18T02:12:57;12.40;71.70
3001;DHT22;1510;51.072;6.678;2022-07-18T02:15:24;12.40;71.20
3001;DHT22;1510;51.072;6.678;2022-07-18T02:17:51;12.40;70.70
3001;DHT22;1510;51.072;6.678;2022-07-18T02:20:18;12.40;72.50
3001;DHT22;1510;51.072;6.678;2022-07-18T02:22:45;12.30;72.20
3001;DHT22;1510;51.072;6.678;2022-07-18T02:25:12;12.40;72.90
3001;DHT22;1510;51.072;6.678;2022-07-18T02:27:39;12.40;71.20
3001;DHT22;1510;51.072;6.678;2022-07-18T02:30:09;12.40;70.30
3001;DHT22;1510;51.072;6.678;2022-07-18T02:32:37;12.40;71.30
3001;DHT22;1510;51.072;6.678;2022-07-18T02:35:06;12.40;71.90
3001;DHT22;1510;51.072;6.678;2022-07-18T02:37:33;12.50;71.20
3001;DHT22;1510;51.072;6.678;2022-07-18T02:40:00;12.40;71.30
3001;DHT22;1510;51.072;6.678;2022-07-18T02:42:27;12.40;71.20
3001;DHT22;1510;51.072;6.678;2022-07-18T02:44:53;12.40;71.20
3001;DHT22;1510;51.072;6.678;2022-07-18T02:47:21;12.40;70.00
3001;DHT22;1510;51.072;6.678;2022-07-18T02:49:48;12.30;69.60
3001;DHT22;1510;51.072;6.678;2022-07-18T02:52:15;12.30;71.10
3001;DHT22;1510;51.072;6.678;2022-07-18T02:54:42;12.30;70.50
3001;DHT22;1510;51.072;6.678;2022-07-18T02:57:09;12.20;71.00
3001;DHT22;1510;51.072;6.678;2022-07-18T02:59:35;12.20;70.60
3001;DHT22;1510;51.072;6.678;2022-07-18T03:02:02;12.10;71.00
3001;DHT22;1510;51.072;6.678;2022-07-18T03:04:31;12.10;72.20
3001;DHT22;1510;51.072;6.678;2022-07-18T03:06:58;12.00;73.20
3001;DHT22;1510;51.072;6.678;2022-07-18T03:09:24;12.10;73.80
3001;DHT22;1510;51.072;6.678;2022-07-18T03:11:53;12.10;74.80
3001;DHT22;1510;51.072;6.678;2022-07-18T03:14:19;12.00;75.50
3001;DHT22;1510;51.072;6.678;2022-07-18T03:16:46;12.10;75.30
3001;DHT22;1510;51.072;6.678;2022-07-18T03:19:13;12.10;76.10
3001;DHT22;1510;51.072;6.678;2022-07-18T03:21:41;12.30;75.50
3001;DHT22;1510;51.072;6.678;2022-07-18T03:24:08;12.30;74.50
3001;DHT22;1510;51.072;6.678;2022-07-18T03:26:36;12.40;73.80
3001;DHT22;1510;51.072;6.678;2022-07-18T03:29:02;12.50;74.40
3001;DHT22;1510;51.072;6.678;2022-07-18T03:31:29;12.60;73.30
3001;DHT22;1510;51.072;6.678;2022-07-18T03:33:56;12.60;72.40
3001;DHT22;1510;51.072;6.678;2022-07-18T03:36:23;12.70;71.50
3001;DHT22;1510;51.072;6.678;2022-07-18T03:38:51;12.70;72.00
3001;DHT22;1510;51.072;6.678;2022-07-18T03:41:18;12.70;71.50
3001;DHT22;1510;51.072;6.678;2022-07-18T03:43:45;12.70;72.70
3001;DHT22;1510;51.072;6.678;2022-07-18T03:46:11;12.60;72.90
3001;DHT22;1510;51.072;6.678;2022-07-18T03:48:38;12.60;74.10
3001;DHT22;1510;51.072;6.678;2022-07-18T03:51:08;12.50;73.80
3001;DHT22;1510;51.072;6.678;2022-07-18T03:53:37;12.40;73.30
3001;DHT22;1510;51.072;6.678;2022-07-18T03:56:25;12.40;73.70
3001;DHT22;1510;51.072;6.678;2022-07-18T03:59:09;12.20;74.70
3001;DHT22;1510;51.072;6.678;2022-07-18T04:01:56;12.20;77.10
3001;DHT22;1510;51.072;6.678;2022-07-18T04:04:34;12.20;78.20
3001;DHT22;1510;51.072;6.678;2022-07-18T04:07:09;12.20;79.80
3001;DHT22;1510;51.072;6.678;2022-07-18T04:13:18;12.40;86.10
3001;DHT22;1510;51.072;6.678;2022-07-18T04:16:02;12.60;85.40
3001;DHT22;1510;51.072;6.678;2022-07-18T04:18:36;12.70;83.70
3001;DHT22;1510;51.072;6.678;2022-07-18T04:21:03;12.80;82.30
3001;DHT22;1510;51.072;6.678;2022-07-18T04:23:30;12.90;81.30
3001;DHT22;1510;51.072;6.678;2022-07-18T04:25:57;13.00;79.70
3001;DHT22;1510;51.072;6.678;2022-07-18T04:28:33;13.10;78.30
3001;DHT22;1510;51.072;6.678;2022-07-18T04:34:18;13.00;77.70
3001;DHT22;1510;51.072;6.678;2022-07-18T04:36:45;13.00;79.60
3001;DHT22;1510;51.072;6.678;2022-07-18T04:39:12;13.10;79.80
3001;DHT22;1510;51.072;6.678;2022-07-18T04:41:39;13.10;79.90
3001;DHT22;1510;51.072;6.678;2022-07-18T04:44:07;13.20;81.00
3001;DHT22;1510;51.072;6.678;2022-07-18T04:46:34;13.30;81.50
3001;DHT22;1510;51.072;6.678;2022-07-18T04:49:01;13.50;80.20
3001;DHT22;1510;51.072;6.678;2022-07-18T04:51:28;13.70;80.30
3001;DHT22;1510;51.072;6.678;2022-07-18T04:53:55;13.80;80.40
3001;DHT22;1510;51.072;6.678;2022-07-18T04:56:23;14.00;80.60
3001;DHT22;1510;51.072;6.678;2022-07-18T04:58:50;14.20;78.80
3001;DHT22;1510;51.072;6.678;2022-07-18T05:01:18;14.40;77.10
3001;DHT22;1510;51.072;6.678;2022-07-18T05:03:45;14.70;73.40
3001;DHT22;1510;51.072;6.678;2022-07-18T05:06:12;14.90;72.00
3001;DHT22;1510;51.072;6.678;2022-07-18T05:08:39;15.20;68.80
3001;DHT22;1510;51.072;6.678;2022-07-18T05:11:07;15.40;65.90
3001;DHT22;1510;51.072;6.678;2022-07-18T05:13:34;15.60;63.60
3001;DHT22;1510;51.072;6.678;2022-07-18T05:16:02;15.80;63.00
3001;DHT22;1510;51.072;6.678;2022-07-18T05:18:42;16.00;60.40
3001;DHT22;1510;51.072;6.678;2022-07-18T05:21:09;16.20;58.30
3001;DHT22;1510;51.072;6.678;2022-07-18T05:23:36;16.40;56.90
3001;DHT22;1510;51.072;6.678;2022-07-18T05:26:02;16.50;55.60
3001;DHT22;1510;51.072;6.678;2022-07-18T05:28:30;16.60;53.90
3001;DHT22;1510;51.072;6.678;2022-07-18T05:30:56;16.80;53.10
3001;DHT22;1510;51.072;6.678;2022-07-18T05:33:24;17.00;52.20
3001;DHT22;1510;51.072;6.678;2022-07-18T05:35:52;17.40;50.80
3001;DHT22;1510;51.072;6.678;2022-07-18T05:38:19;17.60;47.70
3001;DHT22;1510;51.072;6.678;2022-07-18T05:40:49;17.90;47.00
3001;DHT22;1510;51.072;6.678;2022-07-18T05:43:18;18.40;42.90
3001;DHT22;1510;51.072;6.678;2022-07-18T05:45:51;18.80;41.30
3001;DHT22;1510;51.072;6.678;2022-07-18T05:48:20;19.20;36.60
3001;DHT22;1510;51.072;6.678;2022-07-18T05:50:46;19.70;36.60
3001;DHT22;1510;51.072;6.678;2022-07-18T05:53:17;20.30;33.20
3001;DHT22;1510;51.072;6.678;2022-07-18T05:55:44;20.70;29.80
3001;DHT22;1510;51.072;6.678;2022-07-18T05:58:11;21.20;28.70
3001;DHT22;1510;51.072;6.678;2022-07-18T06:00:38;21.30;28.00
3001;DHT22;1510;51.072;6.678;2022-07-18T06:03:05;21.50;24.10
3001;DHT22;1510;51.072;6.678;2022-07-18T06:05:31;21.90;23.60
3001;DHT22;1510;51.072;6.678;2022-07-18T06:07:58;22.00;22.20
3001;DHT22;1510;51.072;6.678;2022-07-18T06:10:26;22.20;21.30
3001;DHT22;1510;51.072;6.678;2022-07-18T06:12:54;22.50;18.90
3001;DHT22;1510;51.072;6.678;2022-07-18T06:15:20;22.50;18.20
3001;DHT22;1510;51.072;6.678;2022-07-18T06:17:48;22.60;18.00
3001;DHT22;1510;51.072;6.678;2022-07-18T06:20:15;22.70;17.80
3001;DHT22;1510;51.072;6.678;2022-07-18T06:22:42;22.70;16.30
3001;DHT22;1510;51.072;6.678;2022-07-18T06:25:09;23.00;16.70
3001;DHT22;1510;51.072;6.678;2022-07-18T06:27:38;23.20;14.50
3001;DHT22;1510;51.072;6.678;2022-07-18T06:30:05;23.40;14.60
3001;DHT22;1510;51.072;6.678;2022-07-18T06:32:32;23.40;14.60
3001;DHT22;1510;51.072;6.678;2022-07-18T06:48:38;24.40;7.60
3001;DHT22;1510;51.072;6.678;2022-07-18T06:51:06;24.60;6.20
3001;DHT22;1510;51.072;6.678;2022-07-18T06:53:34;24.70;6.00
3001;DHT22;1510;51.072;6.678;2022-07-18T06:56:01;24.90;5.10
3001;DHT22;1510;51.072;6.678;2022-07-18T06:58:28;24.80;3.40
3001;DHT22;1510;51.072;6.678;2022-07-18T07:00:56;25.10;3.20
3001;DHT22;1510;51.072;6.678;2022-07-18T07:03:23;25.40;2.90
3001;DHT22;1510;51.072;6.678;2022-07-18T07:05:51;25.40;4.30
3001;DHT22;1510;51.072;6.678;2022-07-18T07:08:18;25.70;1.30
3001;DHT22;1510;51.072;6.678;2022-07-18T07:10:45;25.60;1.00
3001;DHT22;1510;51.072;6.678;2022-07-18T07:13:12;25.70;1.00
3001;DHT22;1510;51.072;6.678;2022-07-18T07:15:39;26.10;1.00
3001;DHT22;1510;51.072;6.678;2022-07-18T07:18:08;26.00;1.00
3001;DHT22;1510;51.072;6.678;2022-07-18T07:20:35;26.20;1.00
3001;DHT22;1510;51.072;6.678;2022-07-18T07:23:04;26.30;1.00
3001;DHT22;1510;51.072;6.678;2022-07-18T07:25:34;26.20;1.00
3001;DHT22;1510;51.072;6.678;2022-07-18T07:28:01;26.30;1.00
3001;DHT22;1510;51.072;6.678;2022-07-18T07:30:28;26.30;1.00
3001;DHT22;1510;51.072;6.678;2022-07-18T07:32:55;26.30;1.00
3001;DHT22;1510;51.072;6.678;2022-07-18T07:35:22;26.30;1.00
3001;DHT22;1510;51.072;6.678;2022-07-18T07:37:51;26.30;1.00
3001;DHT22;1510;51.072;6.678;2022-07-18T07:40:20;26.50;1.00
3001;DHT22;1510;51.072;6.678;2022-07-18T07:42:47;26.50;1.00
3001;DHT22;1510;51.072;6.678;2022-07-18T07:45:14;26.70;1.00
3001;DHT22;1510;51.072;6.678;2022-07-18T07:47:42;26.90;1.00
3001;DHT22;1510;51.072;6.678;2022-07-18T07:50:18;27.40;1.00
3001;DHT22;1510;51.072;6.678;2022-07-18T07:52:45;27.50;1.00
3001;DHT22;1510;51.072;6.678;2022-07-18T07:55:11;27.70;1.00
3001;DHT22;1510;51.072;6.678;2022-07-18T07:57:39;27.40;1.00
3001;DHT22;1510;51.072;6.678;2022-07-18T08:00:07;27.40;1.00
3001;DHT22;1510;51.072;6.678;2022-07-18T08:02:48;27.40;1.00
3001;DHT22;1510;51.072;6.678;2022-07-18T08:05:30;27.80;1.00
3001;DHT22;1510;51.072;6.678;2022-07-18T08:07:58;27.80;1.00
3001;DHT22;1510;51.072;6.678;2022-07-18T08:10:26;27.90;1.00
3001;DHT22;1510;51.072;6.678;2022-07-18T08:12:54;28.30;1.00
3001;DHT22;1510;51.072;6.678;2022-07-18T08:15:21;28.60;1.00
3001;DHT22;1510;51.072;6.678;2022-07-18T08:17:49;28.80;1.00
3001;DHT22;1510;51.072;6.678;2022-07-18T08:20:16;29.30;1.00
3001;DHT22;1510;51.072;6.678;2022-07-18T08:22:56;29.40;1.00
3001;DHT22;1510;51.072;6.678;2022-07-18T08:25:24;29.50;1.00
3001;DHT22;1510;51.072;6.678;2022-07-18T08:27:51;29.70;1.00
3001;DHT22;1510;51.072;6.678;2022-07-18T08:30:19;30.00;1.00
3001;DHT22;1510;51.072;6.678;2022-07-18T08:32:46;30.40;1.00
3001;DHT22;1510;51.072;6.678;2022-07-18T08:35:13;30.70;1.00
3001;DHT22;1510;51.072;6.678;2022-07-18T08:37:40;30.90;1.00
3001;DHT22;1510;51.072;6.678;2022-07-18T08:40:08;30.60;1.00
3001;DHT22;1510;51.072;6.678;2022-07-18T08:42:35;30.70;1.00
3001;DHT22;1510;51.072;6.678;2022-07-18T08:45:04;31.10;1.00
3001;DHT22;1510;51.072;6.678;2022-07-18T08:47:33;31.50;1.00
3001;DHT22;1510;51.072;6.678;2022-07-18T08:50:00;31.80;1.00
3001;DHT22;1510;51.072;6.678;2022-07-18T08:52:28;32.00;1.00
3001;DHT22;1510;51.072;6.678;2022-07-18T08:54:56;32.00;1.00
3001;DHT22;1510;51.072;6.678;2022-07-18T08:57:23;32.30;1.00
3001;DHT22;1510;51.072;6.678;2022-07-18T08:59:50;32.80;1.00
3001;DHT22;1510;51.072;6.678;2022-07-18T09:02:16;32.70;1.00
3001;DHT22;1510;51.072;6.678;2022-07-18T09:04:45;32.80;1.00
3001;DHT22;1510;51.072;6.678;2022-07-18T09:07:26;33.40;1.00
3001;DHT22;1510;51.072;6.678;2022-07-18T09:09:54;33.50;1.00
3001;DHT22;1510;51.072;6.678;2022-07-18T09:12:23;33.70;1.00
3001;DHT22;1510;51.072;6.678;2022-07-18T09:14:50;33.50;1.00
3001;DHT22;1510;51.072;6.678;2022-07-18T09:17:18;33.40;1.00
3001;DHT22;1510;51.072;6.678;2022-07-18T09:19:59;34.00;1.00
3001;DHT22;1510;51.072;6.678;2022-07-18T09:22:28;33.80;1.00
3001;DHT22;1510;51.072;6.678;2022-07-18T09:25:00;34.00;1.00
3001;DHT22;1510;51.072;6.678;2022-07-18T09:27:33;34.00;1.00
3001;DHT22;1510;51.072;6.678;2022-07-18T09:30:22;34.30;1.00
3001;DHT22;1510;51.072;6.678;2022-07-18T09:32:51;34.80;1.00
3001;DHT22;1510;51.072;6.678;2022-07-18T09:35:22;35.20;1.00
3001;DHT22;1510;51.072;6.678;2022-07-18T09:37:58;35.10;1.00
3001;DHT22;1510;51.072;6.678;2022-07-18T09:40:27;35.30;1.00
3001;DHT22;1510;51.072;6.678;2022-07-18T09:42:56;35.30;1.00
3001;DHT22;1510;51.072;6.678;2022-07-18T09:45:25;35.40;1.00
3001;DHT22;1510;51.072;6.678;2022-07-18T09:47:54;35.60;1.00
3001;DHT22;1510;51.072;6.678;2022-07-18T09:50:26;35.40;1.00
3001;DHT22;1510;51.072;6.678;2022-07-18T09:52:57;35.60;1.00
3001;DHT22;1510;51.072;6.678;2022-07-18T09:55:25;35.80;1.00
3001;DHT22;1510;51.072;6.678;2022-07-18T09:58:00;36.00;1.00
3001;DHT22;1510;51.072;6.678;2022-07-18T10:00:29;35.90;1.00
3001;DHT22;1510;51.072;6.678;2022-07-18T10:02:57;36.50;1.00
3001;DHT22;1510;51.072;6.678;2022-07-18T10:05:28;37.20;1.00
3001;DHT22;1510;51.072;6.678;2022-07-18T10:07:56;36.70;1.00
3001;DHT22;1510;51.072;6.678;2022-07-18T10:10:23;36.30;1.00
3001;DHT22;1510;51.072;6.678;2022-07-18T10:12:54;35.60;1.00
3001;DHT22;1510;51.072;6.678;2022-07-18T10:15:22;36.00;1.00
3001;DHT22;1510;51.072;6.678;2022-07-18T10:17:49;36.00;1.00
3001;DHT22;1510;51.072;6.678;2022-07-18T10:20:17;36.40;1.00
3001;DHT22;1510;51.072;6.678;2022-07-18T10:22:45;36.70;1.00
3001;DHT22;1510;51.072;6.678;2022-07-18T10:25:13;36.90;1.00
3001;DHT22;1510;51.072;6.678;2022-07-18T10:27:50;36.70;1.00
3001;DHT22;1510;51.072;6.678;2022-07-18T10:30:17;37.80;1.00
3001;DHT22;1510;51.072;6.678;2022-07-18T10:32:55;38.60;1.00
3001;DHT22;1510;51.072;6.678;2022-07-18T10:35:58;38.90;1.00
3001;DHT22;1510;51.072;6.678;2022-07-18T10:38:26;38.60;1.00
3001;DHT22;1510;51.072;6.678;2022-07-18T10:41:05;39.60;1.00
3001;DHT22;1510;51.072;6.678;2022-07-18T10:43:37;40.10;1.00
3001;DHT22;1510;51.072;6.678;2022-07-18T10:46:06;40.40;1.00
3001;DHT22;1510;51.072;6.678;2022-07-18T10:48:54;39.90;1.00
3001;DHT22;1510;51.072;6.678;2022-07-18T10:51:29;39.10;1.00
3001;DHT22;1510;51.072;6.678;2022-07-18T10:54:04;39.40;1.00
3001;DHT22;1510;51.072;6.678;2022-07-18T10:57:09;39.50;1.00
3001;DHT22;1510;51.072;6.678;2022-07-18T10:59:59;39.00;1.00
3001;DHT22;1510;51.072;6.678;2022-07-18T11:02:35;39.10;1.00
3001;DHT22;1510;51.072;6.678;2022-07-18T11:05:03;39.00;1.00
3001;DHT22;1510;51.072;6.678;2022-07-18T11:08:17;38.40;1.00
3001;DHT22;1510;51.072;6.678;2022-07-18T11:11:08;38.10;1.00
3001;DHT22;1510;51.072;6.678;2022-07-18T11:13:36;38.70;1.00
3001;DHT22;1510;51.072;6.678;2022-07-18T11:16:05;39.30;1.00
3001;DHT22;1510;51.072;6.678;2022-07-18T11:21:58;40.40;1.00
3001;DHT22;1510;51.072;6.678;2022-07-18T11:24:26;39.30;1.00
3001;DHT22;1510;51.072;6.678;2022-07-18T11:26:54;40.10;1.00
3001;DHT22;1510;51.072;6.678;2022-07-18T11:29:21;40.60;1.00
3001;DHT22;1510;51.072;6.678;2022-07-18T11:31:49;41.00;1.00
3001;DHT22;1510;51.072;6.678;2022-07-18T11:34:16;40.70;1.00
3001;DHT22;1510;51.072;6.678;2022-07-18T11:36:45;40.70;1.00
3001;DHT22;1510;51.072;6.678;2022-07-18T11:39:13;40.70;1.00
3001;DHT22;1510;51.072;6.678;2022-07-18T11:41:40;41.10;1.00
3001;DHT22;1510;51.072;6.678;2022-07-18T11:44:18;41.20;1.00
3001;DHT22;1510;51.072;6.678;2022-07-18T11:46:47;40.80;1.00
3001;DHT22;1510;51.072;6.678;2022-07-18T11:49:14;40.20;1.00
3001;DHT22;1510;51.072;6.678;2022-07-18T11:51:42;40.20;1.00
3001;DHT22;1510;51.072;6.678;2022-07-18T11:54:10;41.00;1.00
3001;DHT22;1510;51.072;6.678;2022-07-18T11:56:45;41.60;1.00
3001;DHT22;1510;51.072;6.678;2022-07-18T11:59:13;42.20;1.00
3001;DHT22;1510;51.072;6.678;2022-07-18T12:01:42;42.30;1.00
3001;DHT22;1510;51.072;6.678;2022-07-18T12:04:17;42.30;1.00
3001;DHT22;1510;51.072;6.678;2022-07-18T12:06:45;42.10;1.00
3001;DHT22;1510;51.072;6.678;2022-07-18T12:09:12;41.60;1.00
3001;DHT22;1510;51.072;6.678;2022-07-18T12:11:39;41.10;1.00
3001;DHT22;1510;51.072;6.678;2022-07-18T12:14:13;41.90;1.00
3001;DHT22;1510;51.072;6.678;2022-07-18T12:16:44;42.20;1.00
3001;DHT22;1510;51.072;6.678;2022-07-18T12:19:13;42.10;1.00
3001;DHT22;1510;51.072;6.678;2022-07-18T12:21:42;41.60;1.00
3001;DHT22;1510;51.072;6.678;2022-07-18T12:24:22;42.20;1.00
3001;DHT22;1510;51.072;6.678;2022-07-18T12:29:58;42.60;1.00
3001;DHT22;1510;51.072;6.678;2022-07-18T12:32:30;43.30;1.00
3001;DHT22;1510;51.072;6.678;2022-07-18T12:35:04;43.50;1.00
3001;DHT22;1510;51.072;6.678;2022-07-18T12:37:32;42.80;1.00
3001;DHT22;1510;51.072;6.678;2022-07-18T12:40:00;42.30;1.00
3001;DHT22;1510;51.072;6.678;2022-07-18T12:42:29;42.50;1.00
3001;DHT22;1510;51.072;6.678;2022-07-18T12:44:56;42.30;1.00
3001;DHT22;1510;51.072;6.678;2022-07-18T12:47:24;43.10;1.00
3001;DHT22;1510;51.072;6.678;2022-07-18T12:49:52;44.00;1.00
3001;DHT22;1510;51.072;6.678;2022-07-18T12:52:21;43.30;1.00
3001;DHT22;1510;51.072;6.678;2022-07-18T12:54:48;43.30;1.00
3001;DHT22;1510;51.072;6.678;2022-07-18T12:57:15;42.80;1.00
3001;DHT22;1510;51.072;6.678;2022-07-18T12:59:47;42.10;1.00
3001;DHT22;1510;51.072;6.678;2022-07-18T13:02:15;42.80;1.00
3001;DHT22;1510;51.072;6.678;2022-07-18T13:04:42;42.50;1.00
3001;DHT22;1510;51.072;6.678;2022-07-18T13:07:13;42.20;1.00
3001;DHT22;1510;51.072;6.678;2022-07-18T13:09:40;42.30;1.00
3001;DHT22;1510;51.072;6.678;2022-07-18T13:12:07;42.60;1.00
3001;DHT22;1510;51.072;6.678;2022-07-18T13:14:34;41.50;1.00
3001;DHT22;1510;51.072;6.678;2022-07-18T13:17:01;42.90;1.00
3001;DHT22;1510;51.072;6.678;2022-07-18T13:19:28;42.50;1.00
3001;DHT22;1510;51.072;6.678;2022-07-18T13:21:57;42.20;1.00
3001;DHT22;1510;51.072;6.678;2022-07-18T13:24:27;42.50;1.00
3001;DHT22;1510;51.072;6.678;2022-07-18T13:26:56;43.00;1.00
3001;DHT22;1510;51.072;6.678;2022-07-18T13:29:23;44.00;1.00
3001;DHT22;1510;51.072;6.678;2022-07-18T13:31:50;44.10;1.00
3001;DHT22;1510;51.072;6.678;2022-07-18T13:34:18;44.00;1.00
3001;DHT22;1510;51.072;6.678;2022-07-18T13:36:47;43.10;1.00
3001;DHT22;1510;51.072;6.678;2022-07-18T13:39:16;43.10;1.00
3001;DHT22;1510;51.072;6.678;2022-07-18T13:41:44;42.90;1.00
3001;DHT22;1510;51.072;6.678;2022-07-18T13:44:12;42.60;1.00
3001;DHT22;1510;51.072;6.678;2022-07-18T13:46:39;42.70;1.00
3001;DHT22;1510;51.072;6.678;2022-07-18T13:49:07;42.70;1.00
3001;DHT22;1510;51.072;6.678;2022-07-18T13:51:34;43.00;1.00
3001;DHT22;1510;51.072;6.678;2022-07-18T13:54:02;42.70;1.00
3001;DHT22;1510;51.072;6.678;2022-07-18T13:56:32;43.00;1.00
3001;DHT22;1510;51.072;6.678;2022-07-18T13:59:00;43.70;1.00
3001;DHT22;1510;51.072;6.678;2022-07-18T14:01:27;43.80;1.00
3001;DHT22;1510;51.072;6.678;2022-07-18T14:03:53;43.60;1.00
3001;DHT22;1510;51.072;6.678;2022-07-18T14:06:22;43.20;1.00
3001;DHT22;1510;51.072;6.678;2022-07-18T14:08:49;42.20;1.00
3001;DHT22;1510;51.072;6.678;2022-07-18T14:11:15;41.10;1.00
3001;DHT22;1510;51.072;6.678;2022-07-18T14:13:42;41.40;1.00
3001;DHT22;1510;51.072;6.678;2022-07-18T14:16:10;41.90;1.00
3001;DHT22;1510;51.072;6.678;2022-07-18T14:18:52;41.90;1.00
3001;DHT22;1510;51.072;6.678;2022-07-18T14:21:21;41.20;1.00
3001;DHT22;1510;51.072;6.678;2022-07-18T14:23:48;40.90;1.00
3001;DHT22;1510;51.072;6.678;2022-07-18T14:26:15;40.70;1.00
3001;DHT22;1510;51.072;6.678;2022-07-18T14:28:43;41.70;1.00
3001;DHT22;1510;51.072;6.678;2022-07-18T14:31:11;42.60;1.00
3001;DHT22;1510;51.072;6.678;2022-07-18T14:33:38;43.70;1.00
3001;DHT22;1510;51.072;6.678;2022-07-18T14:36:05;43.80;1.00
3001;DHT22;1510;51.072;6.678;2022-07-18T14:38:32;44.20;1.00
3001;DHT22;1510;51.072;6.678;2022-07-18T14:41:01;43.70;1.00
3001;DHT22;1510;51.072;6.678;2022-07-18T14:43:30;43.00;1.00
3001;DHT22;1510;51.072;6.678;2022-07-18T14:45:57;42.80;1.00
3001;DHT22;1510;51.072;6.678;2022-07-18T14:48:25;42.50;1.00
3001;DHT22;1510;51.072;6.678;2022-07-18T14:50:52;43.60;1.00
3001;DHT22;1510;51.072;6.678;2022-07-18T14:53:19;43.70;1.00
3001;DHT22;1510;51.072;6.678;2022-07-18T14:55:45;41.90;1.00
3001;DHT22;1510;51.072;6.678;2022-07-18T14:58:12;42.30;1.00
3001;DHT22;1510;51.072;6.678;2022-07-18T15:00:39;42.30;1.00
3001;DHT22;1510;51.072;6.678;2022-07-18T15:03:09;42.80;1.00
3001;DHT22;1510;51.072;6.678;2022-07-18T15:05:40;42.50;1.00
3001;DHT22;1510;51.072;6.678;2022-07-18T15:08:07;41.50;1.00
3001;DHT22;1510;51.072;6.678;2022-07-18T15:10:34;42.20;1.00
3001;DHT22;1510;51.072;6.678;2022-07-18T15:13:01;42.60;1.00
3001;DHT22;1510;51.072;6.678;2022-07-18T15:15:28;43.60;1.00
3001;DHT22;1510;51.072;6.678;2022-07-18T15:17:54;43.40;1.00
3001;DHT22;1510;51.072;6.678;2022-07-18T15:20:21;43.30;1.00
3001;DHT22;1510;51.072;6.678;2022-07-18T15:22:49;43.30;1.00
3001;DHT22;1510;51.072;6.678;2022-07-18T15:25:16;43.70;1.00
3001;DHT22;1510;51.072;6.678;2022-07-18T15:27:43;43.70;1.00
3001;DHT22;1510;51.072;6.678;2022-07-18T15:30:09;44.20;1.00
3001;DHT22;1510;51.072;6.678;2022-07-18T15:32:36;44.30;1.00
3001;DHT22;1510;51.072;6.678;2022-07-18T15:35:04;42.90;1.00
3001;DHT22;1510;51.072;6.678;2022-07-18T15:37:31;42.60;1.00
3001;DHT22;1510;51.072;6.678;2022-07-18T15:39:59;43.10;1.00
3001;DHT22;1510;51.072;6.678;2022-07-18T15:42:26;42.30;1.00
3001;DHT22;1510;51.072;6.678;2022-07-18T15:44:53;42.20;1.00
3001;DHT22;1510;51.072;6.678;2022-07-18T15:47:19;42.90;1.00
3001;DHT22;1510;51.072;6.678;2022-07-18T15:49:46;42.20;1.00
3001;DHT22;1510;51.072;6.678;2022-07-18T15:52:13;42.10;1.00
3001;DHT22;1510;51.072;6.678;2022-07-18T15:54:39;42.20;1.00
3001;DHT22;1510;51.072;6.678;2022-07-18T15:57:07;43.20;1.00
3001;DHT22;1510;51.072;6.678;2022-07-18T15:59:34;43.50;1.00
3001;DHT22;1510;51.072;6.678;2022-07-18T16:02:02;42.90;1.00
3001;DHT22;1510;51.072;6.678;2022-07-18T16:04:30;43.00;1.00
3001;DHT22;1510;51.072;6.678;2022-07-18T16:06:57;42.80;1.00
3001;DHT22;1510;51.072;6.678;2022-07-18T16:09:24;43.10;1.00
3001;DHT22;1510;51.072;6.678;2022-07-18T16:11:54;43.00;1.00
3001;DHT22;1510;51.072;6.678;2022-07-18T16:14:22;42.80;1.00
3001;DHT22;1510;51.072;6.678;2022-07-18T16:16:49;43.10;1.00
3001;DHT22;1510;51.072;6.678;2022-07-18T16:19:20;43.20;1.00
3001;DHT22;1510;51.072;6.678;2022-07-18T16:21:48;43.60;1.00
3001;DHT22;1510;51.072;6.678;2022-07-18T16:24:15;43.70;1.00
3001;DHT22;1510;51.072;6.678;2022-07-18T16:26:42;43.90;1.00
3001;DHT22;1510;51.072;6.678;2022-07-18T16:29:09;43.80;1.00
3001;DHT22;1510;51.072;6.678;2022-07-18T16:31:37;43.90;1.00
3001;DHT22;1510;51.072;6.678;2022-07-18T16:34:03;43.40;1.00
3001;DHT22;1510;51.072;6.678;2022-07-18T16:36:30;43.80;1.00
3001;DHT22;1510;51.072;6.678;2022-07-18T16:38:57;43.90;1.00
3001;DHT22;1510;51.072;6.678;2022-07-18T16:41:24;43.00;1.00
3001;DHT22;1510;51.072;6.678;2022-07-18T16:43:54;43.60;1.00
3001;DHT22;1510;51.072;6.678;2022-07-18T16:46:31;43.00;1.00
3001;DHT22;1510;51.072;6.678;2022-07-18T16:49:00;43.10;1.00